Time;durP1;ratioP1;P1;durP2;ratioP2;P2;SDS_P1;SDS_P2;PMS_P1;PMS_P2;Temp;Humidity;BMP_temperature;BMP_pressure;BME280_temperature;BME280_humidity;BME280_pressure;Samples;Min_cycle;Max_cycle;Signal;HPM_P1;HPM_P2
2022/06/02 00:00:05;;;;;;;9.32;6.90;;;;;;;8.06;83.87;99595.56;5068916;28;20091;-56
2022/06/02 00:02:51;;;;;;;7.97;6.80;;;;;;;8.22;83.30;99595.06;5069518;28;20046;-52
2022/06/02 00:05:28;;;;;;;8.60;6.03;;;;;;;8.23;83.25;99596.69;5065133;28;20025;-56
2022/06/02 00:08:18;;;;;;;11.00;6.28;;;;;;;8.23;83.68;99601.22;5046857;28;20040;-56
2022/06/02 00:10:57;;;;;;;8.75;6.22;;;;;;;8.12;84.63;99600.88;5029186;28;20478;-55
2022/06/02 00:13:30;;;;;;;9.07;6.63;;;;;;;8.08;83.53;99610.34;5037750;28;20045;-56
2022/06/02 00:16:02;;;;;;;8.68;6.43;;;;;;;8.19;84.13;99604.31;5048116;28;20039;-55
2022/06/02 00:18:51;;;;;;;8.50;6.80;;;;;;;8.23;83.46;99612.69;5065640;28;20039;-56
2022/06/02 00:21:30;;;;;;;11.05;6.88;;;;;;;8.19;84.23;99616.84;5054685;28;20044;-55
2022/06/02 00:23:58;;;;;;;14.05;7.30;;;;;;;8.04;84.12;99619.00;5053854;28;20100;-55
2022/06/02 00:26:47;;;;;;;8.07;6.90;;;;;;;8.11;84.63;99619.78;5031379;28;20032;-55
2022/06/02 00:29:24;;;;;;;9.48;6.95;;;;;;;8.13;85.06;99617.72;5039183;28;20475;-55
2022/06/02 00:32:28;;;;;;;7.70;6.43;;;;;;;8.11;83.49;99615.28;5051224;28;20044;-55
2022/06/02 00:35:18;;;;;;;9.95;6.55;;;;;;;7.97;84.62;99625.22;5062328;28;20028;-56
2022/06/02 00:37:54;;;;;;;9.05;6.20;;;;;;;8.02;84.85;99621.91;5051144;28;20124;-55
2022/06/02 00:40:20;;;;;;;9.10;6.90;;;;;;;7.87;84.86;99622.19;5044433;28;20067;-56
2022/06/02 00:42:54;;;;;;;9.98;6.80;;;;;;;7.87;84.76;99619.53;5050160;28;20120;-55
2022/06/02 00:45:19;;;;;;;8.68;6.28;;;;;;;7.84;84.81;99619.97;5026773;28;20044;-55
2022/06/02 00:47:48;;;;;;;8.70;6.20;;;;;;;7.75;84.82;99627.41;5057369;28;20395;-54
2022/06/02 00:50:45;;;;;;;8.98;6.10;;;;;;;7.79;84.30;99633.13;5052611;28;20036;-55
2022/06/02 00:53:19;;;;;;;10.90;6.32;;;;;;;7.72;84.96;99635.84;5039587;28;20032;-56
2022/06/02 00:58:59;;;;;;;11.02;7.38;;;;;;;7.63;85.34;99633.63;5044095;28;20129;-54
2022/06/02 01:01:27;;;;;;;9.68;7.55;;;;;;;7.46;85.63;99633.28;5053548;28;20060;-54
2022/06/02 01:03:53;;;;;;;10.50;7.05;;;;;;;7.47;85.94;99641.09;5053530;28;20020;-55
2022/06/02 01:06:18;;;;;;;10.52;8.02;;;;;;;7.61;86.00;99638.34;5053616;28;20074;-54
2022/06/02 01:09:03;;;;;;;10.35;7.47;;;;;;;7.85;84.95;99639.47;5049045;28;20036;-54
2022/06/02 01:11:56;;;;;;;9.00;7.15;;;;;;;7.87;84.63;99640.88;5067211;28;20497;-54
2022/06/02 01:14:33;;;;;;;10.80;7.00;;;;;;;8.03;83.74;99638.72;5062390;28;20086;-55
2022/06/02 01:17:07;;;;;;;9.32;6.43;;;;;;;7.91;84.60;99652.78;5066481;28;20028;-54
2022/06/02 01:19:50;;;;;;;8.43;6.53;;;;;;;7.91;84.53;99651.94;5063178;28;20504;-55
2022/06/02 01:22:24;;;;;;;11.70;7.00;;;;;;;7.81;84.23;99649.72;5040734;28;21313;-54
2022/06/02 01:24:53;;;;;;;12.15;6.70;;;;;;;7.71;84.99;99652.03;5062793;28;20035;-54
2022/06/02 01:27:26;;;;;;;9.52;7.13;;;;;;;7.39;83.91;99651.16;5067710;28;20036;-51
2022/06/02 01:30:07;;;;;;;11.80;7.60;;;;;;;7.08;87.54;99653.53;5043659;28;20477;-54
2022/06/02 01:32:51;;;;;;;10.23;6.90;;;;;;;6.99;85.17;99652.13;5061140;28;20041;-54
2022/06/02 01:35:41;;;;;;;12.18;7.00;;;;;;;6.84;86.83;99660.34;5066985;28;20028;-55
2022/06/02 01:38:19;;;;;;;12.98;7.50;;;;;;;6.95;88.76;99664.22;5067424;28;20032;-54
2022/06/02 01:41:11;;;;;;;8.98;6.70;;;;;;;6.86;87.70;99666.31;5049138;28;20025;-54
2022/06/02 01:43:49;;;;;;;10.82;7.55;;;;;;;6.63;88.95;99660.56;5048097;28;20028;-52
2022/06/02 01:46:31;;;;;;;10.80;8.02;;;;;;;7.15;89.61;99669.50;5039114;28;20032;-54
2022/06/02 01:49:05;;;;;;;13.70;8.75;;;;;;;7.10;88.84;99666.66;5030075;28;20080;-54
2022/06/02 01:51:36;;;;;;;9.85;7.32;;;;;;;7.19;88.19;99664.56;5068521;28;20036;-53
2022/06/02 01:54:54;;;;;;;11.18;8.02;;;;;;;7.16;87.21;99670.31;5066605;28;20036;-54
2022/06/02 01:57:37;;;;;;;13.23;8.10;;;;;;;7.48;87.58;99674.72;5003834;28;20033;-55
2022/06/02 02:00:02;;;;;;;10.35;7.65;;;;;;;6.83;86.40;99673.88;5032231;28;20025;-54
2022/06/02 02:02:36;;;;;;;9.13;7.43;;;;;;;7.12;86.89;99668.06;5067313;28;20098;-54
2022/06/02 02:05:22;;;;;;;10.88;7.60;;;;;;;7.04;86.08;99673.63;5066834;28;20478;-53
2022/06/02 02:07:48;;;;;;;10.43;8.07;;;;;;;7.22;88.29;99669.50;5045782;28;20127;-53
2022/06/02 02:10:16;;;;;;;10.13;8.10;;;;;;;6.88;87.43;99669.53;5065851;28;20447;-54
2022/06/02 02:13:02;;;;;;;15.15;8.38;;;;;;;6.97;87.36;99674.69;5067110;28;20068;-53
2022/06/02 02:15:50;;;;;;;13.63;7.10;;;;;;;6.40;87.21;99676.97;5049032;28;20035;-55
2022/06/02 02:18:27;;;;;;;12.65;8.05;;;;;;;6.39;89.05;99670.81;5029743;28;20116;-54
2022/06/02 02:21:00;;;;;;;11.82;7.75;;;;;;;6.34;88.88;99677.75;5067880;28;20525;-52
2022/06/02 02:23:40;;;;;;;12.45;8.02;;;;;;;6.25;89.17;99675.31;5044839;28;20041;-53
2022/06/02 02:26:13;;;;;;;10.40;7.68;;;;;;;6.57;90.81;99677.38;5067442;28;20039;-54
2022/06/02 02:28:47;;;;;;;13.45;8.60;;;;;;;6.66;87.29;99668.13;5044693;28;20028;-55
2022/06/02 02:31:19;;;;;;;11.70;7.80;;;;;;;6.65;89.17;99675.31;5069473;28;20057;-53
2022/06/02 02:34:06;;;;;;;12.30;8.63;;;;;;;6.75;90.76;99676.75;5070830;28;20079;-55
2022/06/02 02:36:32;;;;;;;13.27;8.50;;;;;;;6.42;89.81;99674.91;5041419;28;20408;-55
2022/06/02 02:39:09;;;;;;;14.20;7.97;;;;;;;6.45;90.02;99687.81;5069676;28;20037;-54
2022/06/02 02:41:44;;;;;;;10.23;7.85;;;;;;;6.66;87.40;99687.63;5064796;28;20033;-54
2022/06/02 02:44:23;;;;;;;10.02;7.65;;;;;;;6.65;87.31;99685.97;5040096;28;20032;-54
2022/06/02 02:47:07;;;;;;;10.73;7.22;;;;;;;6.19;87.75;99681.47;5037975;28;20410;-55
2022/06/02 02:49:47;;;;;;;12.02;8.52;;;;;;;6.01;92.38;99689.19;5044530;28;20082;-54
2022/06/02 02:52:43;;;;;;;12.35;8.35;;;;;;;6.17;92.09;99680.03;5054024;28;20029;-54
2022/06/02 02:55:26;;;;;;;12.00;8.55;;;;;;;6.17;90.25;99683.50;5023934;28;20035;-53
2022/06/02 02:57:57;;;;;;;14.68;8.90;;;;;;;6.17;90.75;99680.84;5047786;28;20040;-53
2022/06/02 03:00:29;;;;;;;15.23;10.25;;;;;;;6.47;92.11;99683.13;5033005;28;20108;-53
2022/06/02 03:02:54;;;;;;;13.82;8.95;;;;;;;6.50;89.76;99677.38;5047783;28;20375;-55
2022/06/02 03:05:56;;;;;;;15.88;10.80;;;;;;;6.28;90.22;99689.25;5071628;28;20030;-54
2022/06/02 03:08:24;;;;;;;15.40;10.00;;;;;;;6.28;91.89;99689.25;5065872;28;20036;-56
2022/06/02 03:10:51;;;;;;;13.25;9.73;;;;;;;6.39;91.94;99683.28;5070004;28;20024;-54
2022/06/02 03:13:40;;;;;;;11.57;8.15;;;;;;;6.02;87.74;99696.97;5036047;28;20029;-54
2022/06/02 03:16:10;;;;;;;12.23;8.05;;;;;;;5.82;88.50;99699.56;5040597;28;20025;-55
2022/06/02 03:19:30;;;;;;;9.70;7.63;;;;;;;5.82;89.28;99704.06;5048926;28;20025;-54
2022/06/02 03:22:21;;;;;;;12.60;7.47;;;;;;;5.75;88.88;99701.38;5023776;28;20047;-54
2022/06/02 03:25:03;;;;;;;9.90;7.65;;;;;;;5.61;88.83;99708.47;5038677;28;20052;-55
2022/06/02 03:27:37;;;;;;;11.63;7.95;;;;;;;5.93;91.06;99718.63;5050898;28;20128;-53
2022/06/02 03:30:15;;;;;;;12.32;8.20;;;;;;;5.81;89.10;99710.38;5069256;28;20033;-53
2022/06/02 03:33:08;;;;;;;13.35;8.05;;;;;;;5.71;89.00;99718.72;5066537;28;20044;-53
2022/06/02 03:35:52;;;;;;;11.07;8.02;;;;;;;5.72;89.39;99723.03;5038675;28;20056;-54
2022/06/02 03:38:37;;;;;;;11.02;8.20;;;;;;;6.40;91.48;99720.38;5068052;28;20031;-52
2022/06/02 03:41:08;;;;;;;12.38;8.30;;;;;;;6.59;85.47;99728.56;5063892;28;20021;-54
2022/06/02 03:43:46;;;;;;;13.15;8.88;;;;;;;6.78;85.47;99722.44;5069887;28;20078;-53
2022/06/02 03:46:32;;;;;;;13.05;7.97;;;;;;;7.35;84.42;99718.25;5051928;28;20039;-52
2022/06/02 03:49:00;;;;;;;11.77;8.82;;;;;;;8.00;79.55;99720.06;5049736;28;20024;-54
2022/06/02 03:51:36;;;;;;;11.77;9.00;;;;;;;8.61;76.79;99729.34;5069187;28;20029;-53
2022/06/02 03:54:15;;;;;;;11.02;7.53;;;;;;;8.86;74.80;99729.34;5064890;28;20078;-54
2022/06/02 03:57:33;;;;;;;9.80;7.25;;;;;;;9.92;70.72;99732.75;5064344;28;20036;-54
2022/06/02 04:00:22;;;;;;;11.05;7.43;;;;;;;9.07;72.77;99739.66;5033183;28;20036;-54
2022/06/02 04:02:52;;;;;;;13.73;7.53;;;;;;;8.62;76.27;99745.16;5065986;28;20032;-54
2022/06/02 04:05:32;;;;;;;11.40;8.27;;;;;;;10.05;73.11;99737.94;5070923;28;20025;-55
2022/06/02 04:08:16;;;;;;;;;;;;;;;11.00;68.57;99742.50;5056808;28;20047;-55
2022/06/02 04:10:48;;;;;;;11.10;7.18;;;;;;;11.42;68.54;99744.25;5060761;28;19916;-55
2022/06/02 04:13:38;;;;;;;7.13;5.88;;;;;;;11.38;63.53;99751.97;5043638;28;20025;-54
2022/06/02 04:16:12;;;;;;;8.93;6.93;;;;;;;10.06;69.94;99752.97;5063225;28;20029;-55
2022/06/02 04:18:48;;;;;;;9.13;6.60;;;;;;;10.56;70.26;99757.25;5068509;28;20024;-54
2022/06/02 04:21:36;;;;;;;9.52;6.15;;;;;;;11.79;64.96;99743.97;5050818;28;20036;-55
2022/06/02 04:24:21;;;;;;;7.43;5.20;;;;;;;13.71;57.64;99752.00;5063111;28;20090;-54
2022/06/02 04:26:54;;;;;;;7.57;5.10;;;;;;;14.15;56.15;99762.78;5056524;28;20398;-54
2022/06/02 04:29:23;;;;;;;7.43;5.20;;;;;;;14.17;54.08;99759.81;5064726;28;20033;-55
2022/06/02 04:32:03;;;;;;;8.55;5.50;;;;;;;14.01;54.57;99762.34;5052039;28;20040;-54
2022/06/02 04:34:31;;;;;;;6.82;4.90;;;;;;;14.65;52.68;99761.69;5042450;28;20459;-56
2022/06/02 04:37:12;;;;;;;8.07;5.50;;;;;;;15.55;50.66;99750.16;5067051;28;20078;-54
2022/06/02 04:40:09;;;;;;;8.05;5.30;;;;;;;14.77;52.62;99769.59;5043519;28;20086;-55
2022/06/02 04:42:42;;;;;;;6.57;5.22;;;;;;;14.85;53.26;99766.44;5064391;28;20075;-55
2022/06/02 04:45:16;;;;;;;6.45;5.07;;;;;;;15.61;51.26;99768.03;5037099;28;20040;-55
2022/06/02 04:47:59;;;;;;;9.32;5.00;;;;;;;15.23;51.36;99772.66;5066358;28;20035;-55
2022/06/02 04:50:37;;;;;;;5.88;5.18;;;;;;;15.60;49.84;99777.22;5037347;28;20124;-55
2022/06/02 04:53:27;;;;;;;7.93;4.72;;;;;;;16.02;49.46;99778.22;5052251;28;20099;-53
2022/06/02 04:56:26;;;;;;;6.82;4.82;;;;;;;16.56;48.69;99778.63;5067936;28;20123;-55
2022/06/02 04:59:19;;;;;;;8.10;5.00;;;;;;;16.85;47.31;99777.34;5042764;28;20044;-54
2022/06/02 05:01:48;;;;;;;8.73;4.55;;;;;;;16.18;49.50;99782.63;5067970;28;20034;-56
2022/06/02 05:04:22;;;;;;;5.85;4.60;;;;;;;17.05;46.91;99780.06;5067370;28;20044;-55
2022/06/02 05:07:12;;;;;;;6.70;4.25;;;;;;;17.08;46.99;99782.22;5058497;28;20044;-55
2022/06/02 05:10:00;;;;;;;5.95;4.22;;;;;;;17.11;46.68;99783.56;5065317;28;20406;-55
2022/06/02 05:13:04;;;;;;;8.27;4.40;;;;;;;17.56;45.93;99779.16;5050982;28;20178;-55
2022/06/02 05:15:57;;;;;;;5.57;4.18;;;;;;;17.23;46.63;99775.97;5065314;28;20120;-55
2022/06/02 05:18:55;;;;;;;5.75;4.40;;;;;;;17.65;46.32;99782.94;5061478;28;20388;-55
2022/06/02 05:21:46;;;;;;;5.63;4.30;;;;;;;18.32;45.16;99791.63;5042900;28;20033;-55
2022/06/02 05:24:49;;;;;;;5.32;4.00;;;;;;;18.38;46.22;99797.84;5067487;28;20493;-55
2022/06/02 05:27:14;;;;;;;6.25;3.92;;;;;;;19.18;44.91;99798.34;5068287;28;20024;-55
2022/06/02 05:30:00;;;;;;;5.90;4.32;;;;;;;20.86;41.37;99797.41;5060722;28;20029;-55
2022/06/02 05:32:54;;;;;;;8.93;4.28;;;;;;;21.96;38.68;99806.94;5062879;28;20431;-55
2022/06/02 05:35:34;;;;;;;5.22;4.07;;;;;;;20.34;42.11;99807.41;5050204;28;20112;-55
2022/06/02 05:38:17;;;;;;;5.65;3.78;;;;;;;19.92;43.19;99803.63;5044109;28;20035;-55
2022/06/02 05:41:05;;;;;;;5.05;4.00;;;;;;;21.30;40.94;99815.22;5045815;28;20055;-54
2022/06/02 05:43:49;;;;;;;6.38;4.63;;;;;;;20.21;43.04;99819.03;5050759;28;20143;-54
2022/06/02 05:46:14;;;;;;;6.45;4.28;;;;;;;20.34;41.50;99815.56;5066593;28;20111;-54
2022/06/02 05:49:02;;;;;;;15.20;5.30;;;;;;;20.17;42.96;99818.00;5066053;28;20408;-55
2022/06/02 05:51:33;;;;;;;10.35;4.65;;;;;;;20.39;42.62;99810.09;5066797;28;20457;-53
2022/06/02 05:54:11;;;;;;;10.98;4.70;;;;;;;20.41;42.23;99816.03;5037320;28;20041;-55
2022/06/02 05:56:49;;;;;;;10.68;4.38;;;;;;;20.82;42.09;99817.41;5063171;28;20032;-55
2022/06/02 05:59:35;;;;;;;11.85;4.88;;;;;;;20.53;42.76;99814.78;5066940;28;20029;-55
2022/06/02 06:02:03;;;;;;;12.82;4.97;;;;;;;20.56;42.78;99825.13;5069000;28;20048;-55
2022/06/02 06:04:49;;;;;;;10.25;5.32;;;;;;;20.29;41.85;99815.66;5070571;28;20112;-55
2022/06/02 06:07:16;;;;;;;16.35;4.93;;;;;;;21.46;40.85;99825.88;5052713;28;20036;-54
2022/06/02 06:10:03;;;;;;;11.80;5.18;;;;;;;21.11;41.62;99826.16;5047872;28;20036;-55
2022/06/02 06:12:41;;;;;;;17.05;5.18;;;;;;;22.05;39.73;99832.41;5071000;28;20112;-55
2022/06/02 06:15:23;;;;;;;14.10;5.53;;;;;;;21.91;40.07;99839.78;5041216;28;20108;-55
2022/06/02 06:17:59;;;;;;;18.17;5.32;;;;;;;22.31;39.68;99840.09;5029827;28;20029;-54
2022/06/02 06:21:02;;;;;;;12.55;5.78;;;;;;;21.68;40.04;99845.13;5069511;28;20043;-56
2022/06/02 06:23:37;;;;;;;13.10;5.80;;;;;;;21.84;40.15;99836.63;5068389;28;20036;-55
2022/06/02 06:26:14;;;;;;;14.13;5.28;;;;;;;22.22;40.26;99850.13;5066635;28;20089;-55
2022/06/02 06:28:50;;;;;;;17.27;5.55;;;;;;;22.52;39.34;99852.19;5069595;28;20063;-54
2022/06/02 06:31:20;;;;;;;21.83;7.00;;;;;;;23.16;37.73;99857.56;5043390;28;20028;-53
2022/06/02 06:33:49;;;;;;;18.17;6.55;;;;;;;22.98;38.47;99859.38;5070129;28;20033;-55
2022/06/02 06:36:20;;;;;;;;;;;;;;;22.78;38.86;99865.28;5070992;28;20070;-54
2022/06/02 06:39:04;;;;;;;18.95;7.93;;;;;;;22.46;38.52;99872.53;5069906;28;20305;-53
2022/06/02 06:41:56;;;;;;;19.70;7.20;;;;;;;21.60;40.09;99864.91;5070493;28;20112;-56
2022/06/02 06:44:43;;;;;;;16.30;7.82;;;;;;;23.34;38.01;99860.41;5062707;28;20135;-55
2022/06/02 06:47:20;;;;;;;15.80;7.85;;;;;;;21.99;39.93;99866.38;5066392;28;20476;-55
2022/06/02 06:49:50;;;;;;;22.05;8.45;;;;;;;24.01;37.22;99857.59;5061408;28;20036;-55
2022/06/02 06:52:38;;;;;;;19.20;8.50;;;;;;;24.17;36.08;99863.41;5069577;28;20028;-55
2022/06/02 06:55:42;;;;;;;17.35;9.10;;;;;;;22.50;39.67;99859.88;5048795;28;20111;-55
2022/06/02 06:58:35;;;;;;;13.68;8.57;;;;;;;24.43;36.14;99854.44;5064352;28;20097;-55
2022/06/02 07:01:09;;;;;;;22.42;9.27;;;;;;;23.07;38.55;99850.44;5031982;28;20060;-52
2022/06/02 07:03:52;;;;;;;20.83;8.80;;;;;;;22.03;40.93;99850.19;5049767;28;20032;-53
2022/06/02 07:06:31;;;;;;;21.63;8.43;;;;;;;23.65;38.01;99833.09;5042247;28;20100;-56
2022/06/02 07:09:23;;;;;;;15.52;8.60;;;;;;;22.61;39.43;99844.06;5052353;28;20044;-54
2022/06/02 07:15:21;;;;;;;20.75;9.23;;;;;;;22.90;39.59;99846.41;5027216;28;20055;-55
2022/06/02 07:17:51;;;;;;;18.80;8.98;;;;;;;21.87;40.00;99852.44;5044086;28;20123;-53
2022/06/02 07:20:48;;;;;;;26.40;9.93;;;;;;;20.26;43.95;99846.19;5036830;28;20083;-52
2022/06/02 07:23:35;;;;;;;25.13;9.93;;;;;;;20.89;42.69;99845.88;5033926;28;20504;-53
2022/06/02 07:26:31;;;;;;;31.75;9.55;;;;;;;24.10;37.17;99854.84;5055775;28;20028;-53
2022/06/02 07:29:10;;;;;;;22.30;9.23;;;;;;;23.79;37.69;99850.25;5032865;28;20447;-55
2022/06/02 07:31:57;;;;;;;16.95;9.18;;;;;;;22.52;39.66;99860.41;5052399;28;20025;-53
2022/06/02 07:34:22;;;;;;;18.85;9.73;;;;;;;23.08;38.76;99857.50;5063600;28;20032;-52
2022/06/02 07:37:02;;;;;;;15.13;9.95;;;;;;;21.33;42.06;99850.06;5070782;28;20047;-53
2022/06/02 07:40:07;;;;;;;18.67;9.85;;;;;;;21.48;41.39;99845.50;5065770;28;20048;-53
2022/06/02 07:43:06;;;;;;;16.95;9.05;;;;;;;19.92;44.87;99841.69;5049591;28;20487;-53
2022/06/02 07:45:50;;;;;;;14.18;7.70;;;;;;;20.43;42.18;99840.25;5021887;28;20037;-54
2022/06/02 07:48:22;;;;;;;13.68;8.05;;;;;;;21.64;41.17;99854.19;5067766;28;20089;-55
2022/06/02 07:50:59;;;;;;;18.48;8.75;;;;;;;21.38;42.01;99851.09;5069247;28;20024;-54
2022/06/02 07:53:56;;;;;;;16.48;9.07;;;;;;;21.15;42.87;99853.66;5062708;28;20087;-54
2022/06/02 07:56:37;;;;;;;14.50;10.07;;;;;;;20.95;42.33;99845.81;5062983;28;20098;-55
2022/06/02 07:59:27;;;;;;;16.33;9.95;;;;;;;22.38;40.61;99852.22;5040932;28;20032;-55
2022/06/02 08:02:34;;;;;;;15.65;9.23;;;;;;;20.36;43.22;99848.78;5065425;28;20127;-55
2022/06/02 08:05:19;;;;;;;12.88;9.98;;;;;;;21.50;41.14;99846.81;5059290;28;20036;-53
2022/06/02 08:07:59;;;;;;;14.57;9.80;;;;;;;20.11;42.06;99846.38;5063791;28;20055;-53
2022/06/02 08:10:37;;;;;;;13.68;9.05;;;;;;;21.39;40.18;99850.00;5050650;28;20093;-52
2022/06/02 08:13:15;;;;;;;16.23;10.18;;;;;;;20.23;42.16;99855.75;5064436;28;20028;-50
2022/06/02 08:16:15;;;;;;;16.30;9.70;;;;;;;21.47;41.45;99855.59;5049354;28;20028;-53
2022/06/02 08:18:55;;;;;;;13.25;9.23;;;;;;;21.09;39.90;99843.94;5068396;28;20441;-53
2022/06/02 08:21:47;;;;;;;10.82;7.80;;;;;;;20.84;39.81;99845.13;5057671;28;20032;-54
2022/06/02 08:24:32;;;;;;;12.07;8.90;;;;;;;21.41;40.30;99845.88;5046098;28;20418;-57
2022/06/02 08:27:21;;;;;;;18.50;8.70;;;;;;;21.29;41.26;99854.50;5068372;28;20036;-53
2022/06/02 08:29:49;;;;;;;13.55;8.75;;;;;;;22.16;39.12;99854.84;5045686;28;20061;-55
2022/06/02 08:32:40;;;;;;;11.82;7.28;;;;;;;22.34;38.71;99855.84;5068577;28;20539;-53
2022/06/02 08:35:11;;;;;;;12.40;7.95;;;;;;;23.27;37.48;99855.41;5041585;28;20028;-55
2022/06/02 08:37:46;;;;;;;15.30;7.63;;;;;;;23.37;36.33;99857.88;5050918;28;20073;-54
2022/06/02 08:40:33;;;;;;;14.90;7.38;;;;;;;23.78;35.68;99854.09;5067349;28;20055;-54
2022/06/02 08:43:19;;;;;;;13.68;6.82;;;;;;;23.19;36.75;99858.91;5067349;28;20044;-54
2022/06/02 08:46:05;;;;;;;11.20;6.03;;;;;;;23.81;36.00;99864.44;5060064;28;20032;-53
2022/06/02 08:48:39;;;;;;;12.38;7.88;;;;;;;23.44;35.77;99854.72;5048313;28;20033;-51
2022/06/02 08:51:23;;;;;;;12.27;6.85;;;;;;;22.19;37.74;99848.78;5063134;28;20115;-55
2022/06/02 08:54:25;;;;;;;12.02;6.15;;;;;;;21.16;39.64;99854.47;5067568;28;20032;-54
2022/06/02 08:57:11;;;;;;;9.75;5.60;;;;;;;23.11;35.16;99852.22;5061372;28;20093;-54
2022/06/02 08:59:49;;;;;;;9.20;5.47;;;;;;;21.47;37.04;99846.63;5049010;28;20137;-53
2022/06/02 09:02:42;;;;;;;11.80;5.75;;;;;;;21.48;37.54;99849.03;5047777;28;20085;-54
2022/06/02 09:05:14;;;;;;;9.65;4.72;;;;;;;22.61;35.46;99850.38;5063362;28;20075;-52
2022/06/02 09:07:39;;;;;;;10.80;5.30;;;;;;;22.81;34.74;99843.63;5064221;28;20402;-55
2022/06/02 09:10:28;;;;;;;7.80;5.15;;;;;;;21.91;36.47;99846.03;5068020;28;20437;-55
2022/06/02 09:13:31;;;;;;;25.52;7.13;;;;;;;20.53;40.99;99836.59;5054819;28;20040;-55
2022/06/02 09:16:14;;;;;;;14.13;5.82;;;;;;;22.68;36.90;99839.00;5062153;28;20092;-55
2022/06/02 09:18:58;;;;;;;15.65;6.55;;;;;;;22.53;36.48;99845.59;5053074;28;20394;-55
2022/06/02 09:21:28;;;;;;;19.70;6.15;;;;;;;21.14;40.44;99841.13;5066563;28;20123;-55
2022/06/02 09:24:14;;;;;;;19.33;5.70;;;;;;;22.38;37.39;99845.94;5049563;28;20051;-54
2022/06/02 09:27:00;;;;;;;12.63;5.13;;;;;;;21.99;36.49;99844.56;5045646;28;20032;-55
2022/06/02 09:29:28;;;;;;;11.60;4.57;;;;;;;21.08;37.74;99842.31;5048004;28;20091;-55
2022/06/02 09:31:56;;;;;;;17.65;4.32;;;;;;;20.18;39.34;99847.63;5066969;28;20098;-53
2022/06/02 09:34:33;;;;;;;14.15;3.90;;;;;;;21.14;36.64;99854.75;5066482;28;20120;-54
2022/06/02 09:37:24;;;;;;;5.82;2.78;;;;;;;19.42;35.20;99851.97;5063928;28;20031;-54
2022/06/02 09:40:11;;;;;;;10.23;3.28;;;;;;;20.25;34.93;99850.00;5064555;28;20040;-54
2022/06/02 09:42:58;;;;;;;6.38;4.18;;;;;;;19.96;38.11;99844.63;5067184;28;20036;-54
2022/06/02 09:45:31;;;;;;;17.88;5.47;;;;;;;19.79;40.22;99845.09;5067793;28;20513;-54
2022/06/02 09:48:24;;;;;;;18.70;6.05;;;;;;;20.58;39.61;99836.53;5054425;28;20044;-54
2022/06/02 09:51:15;;;;;;;14.40;5.85;;;;;;;19.08;41.49;99830.25;5055606;28;20079;-54
2022/06/02 09:53:51;;;;;;;12.88;4.97;;;;;;;20.66;40.35;99833.16;5049063;28;20042;-54
2022/06/02 09:56:40;;;;;;;9.43;4.03;;;;;;;22.39;36.05;99842.13;5048615;28;20032;-54
2022/06/02 09:59:35;;;;;;;10.52;3.90;;;;;;;21.71;36.93;99839.06;5046550;28;20540;-53
2022/06/02 10:02:03;;;;;;;7.15;3.78;;;;;;;19.68;37.21;99838.16;5059246;28;20483;-54
2022/06/02 10:05:13;;;;;;;6.20;3.60;;;;;;;18.50;40.52;99842.56;5060370;28;20036;-52
2022/06/02 10:07:59;;;;;;;8.77;3.65;;;;;;;20.40;37.23;99838.91;5061139;28;20490;-53
2022/06/02 10:10:30;;;;;;;10.73;3.72;;;;;;;20.55;36.62;99834.41;5045411;28;20032;-53
2022/06/02 10:13:20;;;;;;;5.50;3.05;;;;;;;21.28;35.95;99830.25;5067708;28;20082;-54
2022/06/02 10:16:13;;;;;;;8.40;3.30;;;;;;;21.47;35.18;99830.25;5063905;28;20106;-54
2022/06/02 10:18:41;;;;;;;6.57;3.75;;;;;;;20.76;36.50;99827.53;5063455;28;20031;-54
2022/06/02 10:21:09;;;;;;;10.70;3.45;;;;;;;21.36;35.34;99823.31;5060115;28;20062;-51
2022/06/02 10:23:49;;;;;;;6.93;3.10;;;;;;;20.89;35.86;99828.72;5067165;28;20032;-52
2022/06/02 10:26:52;;;;;;;9.45;2.80;;;;;;;20.13;37.15;99823.22;5067161;28;20059;-51
2022/06/02 10:29:21;;;;;;;7.15;2.90;;;;;;;21.17;35.98;99824.19;5066953;28;20112;-51
2022/06/02 10:32:02;;;;;;;6.18;3.97;;;;;;;18.66;38.90;99824.25;5067054;28;20024;-53
2022/06/02 10:34:44;;;;;;;5.10;3.63;;;;;;;17.63;40.37;99823.06;5067026;28;20044;-52
2022/06/02 10:37:22;;;;;;;6.43;3.45;;;;;;;19.35;38.46;99824.31;5046898;28;20032;-53
2022/06/02 10:40:12;;;;;;;5.75;2.53;;;;;;;19.02;38.77;99813.19;5067248;28;20029;-54
2022/06/02 10:42:49;;;;;;;7.10;2.10;;;;;;;21.40;34.40;99810.75;5057023;28;20041;-51
2022/06/02 10:45:26;;;;;;;5.47;3.17;;;;;;;20.24;37.45;99813.00;5061803;28;20483;-53
2022/06/02 10:48:19;;;;;;;9.45;3.83;;;;;;;20.29;37.66;99810.22;5067706;28;20040;-53
2022/06/02 10:51:22;;;;;;;5.65;3.35;;;;;;;18.82;38.99;99813.31;5066428;28;20028;-56
2022/06/02 10:54:12;;;;;;;4.32;2.83;;;;;;;21.02;35.31;99811.63;5063700;28;20039;-54
2022/06/02 10:57:25;;;;;;;5.63;2.78;;;;;;;22.00;34.17;99818.88;5047616;28;20036;-54
2022/06/02 11:00:09;;;;;;;7.97;2.97;;;;;;;21.52;34.36;99808.34;5017668;28;20502;-52
2022/06/02 11:02:46;;;;;;;4.95;2.75;;;;;;;21.12;34.00;99818.81;5065167;28;20028;-52
2022/06/02 11:05:20;;;;;;;7.47;2.80;;;;;;;21.33;35.02;99811.91;5071117;28;20463;-52
2022/06/02 11:08:28;;;;;;;5.55;2.83;;;;;;;22.23;32.74;99811.59;5068695;28;20075;-53
2022/06/02 11:11:15;;;;;;;6.43;3.30;;;;;;;18.42;38.13;99807.03;5050861;28;20105;-55
2022/06/02 11:13:51;;;;;;;5.35;3.00;;;;;;;19.23;37.55;99808.38;5066177;28;20044;-55
2022/06/02 11:16:26;;;;;;;6.47;2.63;;;;;;;19.03;36.69;99793.06;5045089;28;20028;-54
2022/06/02 11:18:51;;;;;;;5.72;2.50;;;;;;;19.43;35.64;99787.53;5067180;28;20394;-53
2022/06/02 11:21:46;;;;;;;5.15;2.35;;;;;;;20.04;35.00;99790.41;5068608;28;20053;-54
2022/06/02 11:24:18;;;;;;;5.28;2.28;;;;;;;20.51;34.42;99778.88;5047263;28;20031;-52
2022/06/02 11:27:05;;;;;;;7.72;3.00;;;;;;;20.10;36.24;99776.75;5064092;28;20041;-53
2022/06/02 11:30:08;;;;;;;5.78;3.00;;;;;;;21.49;34.99;99776.19;5039481;28;20579;-53
2022/06/02 11:33:04;;;;;;;4.78;3.00;;;;;;;22.03;33.06;99780.03;5061070;28;20043;-54
2022/06/02 11:36:01;;;;;;;9.35;3.00;;;;;;;20.32;36.33;99765.25;5067702;28;20043;-53
2022/06/02 11:38:38;;;;;;;8.05;2.88;;;;;;;20.51;34.89;99768.00;5064449;28;20021;-54
2022/06/02 11:41:25;;;;;;;6.50;2.42;;;;;;;21.06;33.31;99765.50;5066153;28;20474;-54
2022/06/02 11:44:00;;;;;;;4.68;2.47;;;;;;;20.55;33.40;99769.88;5069728;28;20032;-52
2022/06/02 11:46:44;;;;;;;5.32;2.45;;;;;;;20.13;33.32;99762.53;5066409;28;20036;-53
2022/06/02 11:49:18;;;;;;;5.90;2.15;;;;;;;21.21;32.22;99759.78;5069508;28;20021;-51
2022/06/02 11:52:06;;;;;;;4.03;2.20;;;;;;;20.78;32.51;99751.00;5069594;28;20044;-54
2022/06/02 11:54:56;;;;;;;7.95;2.40;;;;;;;20.57;31.73;99756.78;5043935;28;20040;-53
2022/06/02 11:57:40;;;;;;;3.95;2.22;;;;;;;19.49;33.59;99753.75;5051309;28;20060;-50
2022/06/02 12:00:18;;;;;;;4.30;2.03;;;;;;;20.74;33.67;99750.75;5061466;28;20036;-53
2022/06/02 12:03:02;;;;;;;5.35;2.40;;;;;;;20.15;35.77;99749.47;5065540;28;20063;-53
2022/06/02 12:05:49;;;;;;;3.38;2.10;;;;;;;22.25;32.36;99743.03;5065803;28;20360;-52
2022/06/02 12:08:38;;;;;;;5.43;2.38;;;;;;;22.16;31.85;99743.72;5066368;28;20052;-53
2022/06/02 12:11:03;;;;;;;5.67;3.00;;;;;;;22.20;32.42;99734.97;5048729;28;20032;-53
2022/06/02 12:13:35;;;;;;;5.93;2.67;;;;;;;22.06;32.98;99735.75;5065130;28;20085;-54
2022/06/02 12:16:16;;;;;;;4.53;2.50;;;;;;;22.86;31.99;99733.38;5029660;28;20028;-54
2022/06/02 12:18:59;;;;;;;4.47;2.70;;;;;;;21.43;32.06;99733.78;5060107;28;20040;-55
2022/06/02 12:21:49;;;;;;;5.88;2.30;;;;;;;21.02;31.95;99732.59;5059540;28;20132;-54
2022/06/02 12:24:31;;;;;;;;;;;;;;;20.40;32.39;99735.47;5068827;28;20044;-52
2022/06/02 12:27:11;;;;;;;7.82;2.45;;;;;;;21.50;31.96;99721.38;5056319;28;19916;-52
2022/06/02 12:29:54;;;;;;;3.42;2.30;;;;;;;21.54;31.69;99725.13;5067845;28;20028;-53
2022/06/02 12:33:03;;;;;;;5.10;2.40;;;;;;;22.00;32.03;99720.63;5068760;28;20120;-51
2022/06/02 12:35:54;;;;;;;3.15;2.40;;;;;;;22.46;30.91;99719.59;5021676;28;20067;-55
2022/06/02 12:38:30;;;;;;;6.18;2.47;;;;;;;21.22;33.43;99722.44;5068491;28;20040;-53
2022/06/02 12:41:22;;;;;;;5.68;2.75;;;;;;;21.69;33.20;99720.44;5042481;28;20055;-54
2022/06/02 12:44:12;;;;;;;9.50;3.85;;;;;;;20.51;32.92;99719.78;5047940;28;20041;-53
2022/06/02 12:47:00;;;;;;;7.90;2.45;;;;;;;20.20;33.92;99719.44;5063370;28;20394;-53